createdAt,value
2019-05-10T00:00:28.897Z,31.23
2019-05-10T00:03:16.619Z,31.03
2019-05-10T00:06:04.119Z,28.50
2019-05-10T00:08:47.698Z,28.63
2019-05-10T00:11:23.915Z,28.80
2019-05-10T00:13:58.868Z,29.63
2019-05-10T00:16:28.588Z,28.50
2019-05-10T00:18:58.101Z,29.87
2019-05-10T00:21:29.182Z,23.27
2019-05-10T00:23:58.617Z,24.60
2019-05-10T00:26:28.038Z,31.40
2019-05-10T00:28:57.483Z,24.13
2019-05-10T00:31:26.897Z,26.87
2019-05-10T00:33:56.429Z,24.70
2019-05-10T00:36:25.846Z,23.33
2019-05-10T00:38:55.297Z,26.80
2019-05-10T00:41:24.737Z,24.17
2019-05-10T00:43:55.944Z,25.17
2019-05-10T00:46:25.465Z,21.30
2019-05-10T00:48:54.930Z,23.30
2019-05-10T00:51:24.435Z,19.73
2019-05-10T00:53:53.842Z,24.97
2019-05-10T00:56:23.273Z,19.43
2019-05-10T00:58:52.675Z,23.77
2019-05-10T01:01:22.133Z,22.30
2019-05-10T01:03:51.542Z,21.27
2019-05-10T01:06:21.146Z,25.93
2019-05-10T01:08:50.545Z,21.33
2019-05-10T01:11:19.982Z,19.40
2019-05-10T01:13:49.389Z,21.57
2019-05-10T01:16:18.914Z,20.73
2019-05-10T01:18:48.389Z,22.07
2019-05-10T01:21:17.843Z,20.63
2019-05-10T01:23:47.250Z,18.97
2019-05-10T01:26:16.954Z,20.40
2019-05-10T01:28:46.418Z,20.07
2019-05-10T01:31:16.024Z,20.37
2019-05-10T01:33:45.602Z,20.37
2019-05-10T01:36:15.038Z,22.73
2019-05-10T01:38:44.571Z,19.83
2019-05-10T01:41:14.080Z,21.30
2019-05-10T01:43:43.580Z,22.27
2019-05-10T01:46:13.004Z,24.77
2019-05-10T01:48:42.450Z,22.23
2019-05-10T01:51:11.867Z,24.40
2019-05-10T01:53:41.304Z,25.23
2019-05-10T01:56:10.738Z,21.93
2019-05-10T01:58:40.259Z,24.13
2019-05-10T02:01:09.704Z,22.67
2019-05-10T02:03:39.179Z,25.30
2019-05-10T02:06:08.622Z,26.63
2019-05-10T02:08:38.283Z,25.23
2019-05-10T02:11:07.968Z,28.37
2019-05-10T02:13:37.370Z,26.10
2019-05-10T02:16:06.897Z,24.87
2019-05-10T02:18:36.681Z,23.23
2019-05-10T02:21:06.844Z,23.33
2019-05-10T02:23:36.302Z,24.87
2019-05-10T02:26:09.613Z,25.23
2019-05-10T02:28:36.828Z,22.80
2019-05-10T02:31:06.356Z,24.20
2019-05-10T02:33:35.777Z,24.80
2019-05-10T02:36:05.590Z,22.73
2019-05-10T02:38:34.996Z,26.27
2019-05-10T02:41:04.430Z,27.23
2019-05-10T02:43:35.571Z,28.70
2019-05-10T02:46:08.243Z,26.53
2019-05-10T02:48:37.648Z,27.37
2019-05-10T02:51:07.086Z,23.27
2019-05-10T02:53:36.518Z,24.43
2019-05-10T02:56:06.081Z,23.97
2019-05-10T02:58:39.781Z,20.50
2019-05-10T03:01:10.961Z,24.57
2019-05-10T03:03:42.624Z,15.93
2019-05-10T03:06:15.160Z,20.70
2019-05-10T03:08:52.245Z,14.83
2019-05-10T03:11:21.943Z,18.43
2019-05-10T03:13:52.811Z,15.33
2019-05-10T03:16:23.548Z,14.67
2019-05-10T03:18:54.525Z,15.30
2019-05-10T03:21:24.357Z,14.60
2019-05-10T03:23:53.968Z,12.77
2019-05-10T03:26:23.612Z,13.23
2019-05-10T03:28:53.029Z,12.00
2019-05-10T03:31:22.540Z,10.97
2019-05-10T03:33:56.491Z,12.90
2019-05-10T03:36:23.142Z,13.10
2019-05-10T03:38:52.621Z,9.80
2019-05-10T03:41:25.426Z,11.67
2019-05-10T03:43:54.865Z,8.93
2019-05-10T03:46:24.262Z,9.63
2019-05-10T03:48:53.732Z,8.43
2019-05-10T03:51:23.130Z,10.97
2019-05-10T03:53:52.806Z,9.27
2019-05-10T03:56:22.202Z,13.97
2019-05-10T03:58:51.926Z,15.30
2019-05-10T04:01:21.504Z,11.10
2019-05-10T04:03:50.921Z,9.57
2019-05-10T04:06:20.384Z,9.17
2019-05-10T04:08:49.939Z,10.03
2019-05-10T04:11:19.331Z,10.60
2019-05-10T04:13:48.768Z,10.57
2019-05-10T04:16:18.354Z,10.90
2019-05-10T04:18:49.407Z,10.57
2019-05-10T04:21:18.851Z,15.17
2019-05-10T04:23:49.876Z,16.07
2019-05-10T04:26:19.473Z,12.47
2019-05-10T04:28:48.906Z,13.47
2019-05-10T04:31:18.415Z,17.37
2019-05-10T04:33:47.851Z,15.87
2019-05-10T04:36:17.356Z,18.53
2019-05-10T04:38:46.787Z,14.27
2019-05-10T04:41:16.326Z,11.20
2019-05-10T04:43:45.817Z,14.87
2019-05-10T04:46:15.275Z,13.90
2019-05-10T04:48:44.781Z,15.00
2019-05-10T04:51:14.276Z,14.33
2019-05-10T04:53:45.081Z,15.87
2019-05-10T04:56:14.550Z,18.23
2019-05-10T04:58:44.065Z,16.27
2019-05-10T05:01:13.750Z,22.90
2019-05-10T05:03:43.182Z,19.50
2019-05-10T05:06:14.168Z,16.57
2019-05-10T05:08:43.636Z,19.43
2019-05-10T05:11:13.136Z,18.30
2019-05-10T05:13:42.578Z,16.97
2019-05-10T05:16:12.010Z,14.40
2019-05-10T05:18:41.997Z,15.27
2019-05-10T05:21:11.828Z,17.43
2019-05-10T05:23:41.342Z,21.43
2019-05-10T05:26:10.775Z,17.10
2019-05-10T05:28:40.293Z,14.27
2019-05-10T05:31:11.318Z,15.10
2019-05-10T05:33:40.822Z,17.27
2019-05-10T05:36:10.267Z,15.77
2019-05-10T05:38:40.655Z,13.60
2019-05-10T05:41:10.882Z,15.13
2019-05-10T05:43:45.570Z,13.03
2019-05-10T05:46:14.456Z,13.60
2019-05-10T05:48:43.804Z,14.10
2019-05-10T05:51:13.232Z,9.63
2019-05-10T05:53:44.656Z,12.90
2019-05-10T05:56:14.664Z,8.27
2019-05-10T05:58:46.886Z,12.30
2019-05-10T06:01:24.381Z,10.10
2019-05-10T06:03:47.545Z,12.40
2019-05-10T06:06:21.776Z,9.30
2019-05-10T06:08:48.092Z,13.90
2019-05-10T06:11:17.531Z,11.37
2019-05-10T06:13:46.953Z,12.70
2019-05-10T06:16:16.727Z,9.00
2019-05-10T06:18:47.483Z,9.47
2019-05-10T06:21:23.496Z,10.10
2019-05-10T06:23:48.597Z,10.80
2019-05-10T06:26:26.575Z,6.83
2019-05-10T06:29:03.863Z,8.33
2019-05-10T06:31:22.394Z,9.10
2019-05-10T06:33:51.848Z,8.80
2019-05-10T06:36:21.296Z,10.73
2019-05-10T06:38:50.721Z,13.57
2019-05-10T06:41:20.222Z,10.73
2019-05-10T06:43:51.254Z,8.53
2019-05-10T06:46:23.617Z,15.00
2019-05-10T06:48:52.247Z,10.33
2019-05-10T06:51:21.777Z,11.43
2019-05-10T06:53:53.961Z,8.97
2019-05-10T06:56:23.636Z,9.70
2019-05-10T06:58:53.115Z,10.90
2019-05-10T07:01:22.568Z,11.37
2019-05-10T07:03:52.038Z,7.33
2019-05-10T07:06:21.634Z,7.47
2019-05-10T07:08:51.953Z,9.23
2019-05-10T07:11:22.210Z,7.23
2019-05-10T07:13:53.079Z,7.70
2019-05-10T07:16:25.611Z,7.77
2019-05-10T07:18:54.859Z,6.27
2019-05-10T07:21:25.224Z,4.93
2019-05-10T07:23:54.693Z,11.80
2019-05-10T07:26:26.749Z,10.10
2019-05-10T07:28:57.572Z,6.50
2019-05-10T07:31:27.313Z,6.27
2019-05-10T07:33:56.908Z,6.80
2019-05-10T07:36:29.385Z,7.43
2019-05-10T07:38:57.570Z,4.37
2019-05-10T07:41:29.095Z,9.27
2019-05-10T07:44:00.596Z,5.70
2019-05-10T07:46:29.543Z,6.67
2019-05-10T07:48:58.974Z,4.60
2019-05-10T07:51:30.346Z,11.27
2019-05-10T07:54:04.522Z,5.13
2019-05-10T07:56:31.113Z,5.30
2019-05-10T07:59:00.890Z,5.43
2019-05-10T08:01:32.889Z,6.87
2019-05-10T08:04:01.649Z,6.83
2019-05-10T08:06:39.805Z,7.37
2019-05-10T08:09:06.423Z,7.33
2019-05-10T08:11:34.920Z,7.43
2019-05-10T08:14:06.907Z,6.37
2019-05-10T08:16:38.605Z,5.93
2019-05-10T08:19:08.250Z,6.80
2019-05-10T08:21:37.802Z,5.03
2019-05-10T08:24:13.734Z,4.97
2019-05-10T08:26:42.461Z,6.30
2019-05-10T08:29:15.119Z,4.17
2019-05-10T08:31:49.044Z,5.17
2019-05-10T08:34:13.540Z,5.77
2019-05-10T08:36:47.505Z,5.80
2019-05-10T08:39:14.239Z,4.20
2019-05-10T08:41:45.892Z,3.70
2019-05-10T08:44:19.523Z,5.03
2019-05-10T08:46:45.898Z,5.33
2019-05-10T08:49:15.304Z,5.00
2019-05-10T08:51:49.159Z,4.57
2019-05-10T08:54:15.847Z,6.50
2019-05-10T08:56:46.827Z,6.00
2019-05-10T08:59:23.565Z,5.13
2019-05-10T09:01:50.988Z,8.93
2019-05-10T09:04:18.813Z,6.27
2019-05-10T09:06:55.981Z,4.50
2019-05-10T09:09:22.761Z,4.47
2019-05-10T09:11:57.417Z,5.73
2019-05-10T09:14:24.203Z,7.40
2019-05-10T09:17:00.827Z,5.43
2019-05-10T09:19:35.996Z,7.47
2019-05-10T09:22:01.776Z,7.70
2019-05-10T09:24:34.935Z,5.83
2019-05-10T09:27:03.489Z,5.73
2019-05-10T09:29:37.192Z,8.13
2019-05-10T09:32:06.690Z,6.10
2019-05-10T09:34:35.252Z,7.53
2019-05-10T09:37:08.001Z,8.10
2019-05-10T09:39:36.051Z,7.57
2019-05-10T09:42:08.989Z,12.80
2019-05-10T09:44:36.701Z,10.20
2019-05-10T09:47:06.299Z,10.20
2019-05-10T09:49:35.691Z,12.93
2019-05-10T09:52:12.552Z,8.13
2019-05-10T09:54:38.073Z,12.47
2019-05-10T09:57:08.273Z,8.37
2019-05-10T09:59:37.826Z,10.50
2019-05-10T10:02:14.299Z,13.33
2019-05-10T10:04:39.301Z,11.10
2019-05-10T10:07:08.902Z,10.23
2019-05-10T10:09:44.558Z,8.20
2019-05-10T10:12:09.837Z,8.87
2019-05-10T10:14:43.292Z,12.13
2019-05-10T10:17:11.185Z,9.60
2019-05-10T10:19:42.082Z,7.07
2019-05-10T10:22:13.227Z,8.00
2019-05-10T10:24:42.866Z,8.77
2019-05-10T10:27:12.273Z,8.63
2019-05-10T10:29:41.707Z,7.60
2019-05-10T10:32:11.120Z,12.80
2019-05-10T10:34:42.994Z,10.40
2019-05-10T10:37:14.660Z,10.67
2019-05-10T10:39:42.973Z,8.43
2019-05-10T10:42:13.329Z,4.70
2019-05-10T10:44:44.747Z,7.47
2019-05-10T10:47:14.151Z,9.83
2019-05-10T10:49:43.763Z,10.27
2019-05-10T10:52:13.525Z,7.97
2019-05-10T10:54:43.089Z,7.97
2019-05-10T10:57:12.652Z,10.63
2019-05-10T10:59:42.269Z,9.07
2019-05-10T11:02:33.413Z,7.33
2019-05-10T11:04:46.705Z,10.90
2019-05-10T11:07:14.363Z,8.17
2019-05-10T11:09:43.894Z,10.50
2019-05-10T11:12:14.676Z,7.70
2019-05-10T11:14:45.632Z,10.97
2019-05-10T11:17:15.083Z,4.90
2019-05-10T11:19:44.525Z,11.73
2019-05-10T11:22:14.064Z,10.33
2019-05-10T11:24:44.931Z,6.80
2019-05-10T11:27:17.104Z,9.23
2019-05-10T11:29:45.503Z,13.00
2019-05-10T11:32:17.056Z,6.13
2019-05-10T11:34:46.782Z,7.00
2019-05-10T11:37:18.510Z,9.00
2019-05-10T11:39:50.319Z,8.50
2019-05-10T11:42:21.182Z,8.00
2019-05-10T11:44:54.584Z,7.10
2019-05-10T11:47:26.739Z,9.20
2019-05-10T11:49:53.131Z,9.50
2019-05-10T11:52:22.737Z,8.23
2019-05-10T11:54:52.214Z,11.17
2019-05-10T11:57:22.060Z,9.80
2019-05-10T11:59:51.957Z,11.80
2019-05-10T12:02:38.029Z,8.00
2019-05-10T12:04:54.257Z,8.43
2019-05-10T12:07:34.009Z,9.13
2019-05-10T12:10:03.447Z,6.73
2019-05-10T12:12:44.865Z,12.17
2019-05-10T12:14:57.407Z,12.37
2019-05-10T12:17:28.510Z,7.80
2019-05-10T12:20:02.551Z,8.90
2019-05-10T12:22:37.204Z,10.00
2019-05-10T12:26:19.459Z,11.57
2019-05-10T12:27:45.142Z,9.17
2019-05-10T12:30:07.731Z,7.63
2019-05-10T12:32:53.663Z,8.97
2019-05-10T12:35:08.436Z,8.47
2019-05-10T12:37:39.501Z,5.40
2019-05-10T12:40:14.532Z,11.53
2019-05-10T12:42:41.719Z,7.43
2019-05-10T12:45:11.354Z,9.23
2019-05-10T12:47:41.505Z,6.33
2019-05-10T12:50:11.776Z,8.27
2019-05-10T12:52:43.295Z,6.97
2019-05-10T12:55:12.483Z,7.90
2019-05-10T12:57:43.447Z,7.67
2019-05-10T13:00:15.754Z,6.23
2019-05-10T13:02:50.504Z,6.43
2019-05-10T13:05:16.108Z,7.67
2019-05-10T13:07:45.750Z,9.20
2019-05-10T13:10:15.310Z,8.10
2019-05-10T13:12:47.246Z,10.07
2019-05-10T13:15:17.092Z,9.57
2019-05-10T13:17:50.450Z,6.90
2019-05-10T13:20:18.474Z,8.67
2019-05-10T13:22:47.913Z,9.27
2019-05-10T13:25:17.392Z,7.27
2019-05-10T13:27:46.917Z,8.60
2019-05-10T13:30:16.740Z,6.53
2019-05-10T13:32:46.249Z,6.43
2019-05-10T13:35:17.255Z,11.13
2019-05-10T13:37:46.670Z,8.73
2019-05-10T13:40:16.140Z,6.70
2019-05-10T13:42:46.122Z,5.33
2019-05-10T13:45:16.099Z,5.43
2019-05-10T13:47:45.635Z,8.73
2019-05-10T13:50:15.218Z,6.43
2019-05-10T13:52:44.672Z,8.40
2019-05-10T13:55:14.136Z,10.73
2019-05-10T13:57:43.973Z,8.00
2019-05-10T14:00:13.729Z,8.33
2019-05-10T14:02:43.196Z,6.17
2019-05-10T14:05:17.697Z,9.97
2019-05-10T14:07:51.238Z,7.33
2019-05-10T14:10:18.223Z,6.63
2019-05-10T14:12:46.612Z,9.40
2019-05-10T14:15:16.573Z,7.20
2019-05-10T14:17:46.001Z,8.07
2019-05-10T14:20:30.861Z,7.80
2019-05-10T14:22:48.550Z,6.90
2019-05-10T14:25:18.319Z,5.40
2019-05-10T14:27:47.726Z,7.07
2019-05-10T14:30:17.411Z,9.13
2019-05-10T14:32:46.936Z,7.53
2019-05-10T14:35:22.414Z,8.63
2019-05-10T14:37:49.305Z,6.50
2019-05-10T14:40:27.970Z,6.17
2019-05-10T14:42:51.417Z,6.33
2019-05-10T14:45:20.967Z,8.10
2019-05-10T14:47:52.016Z,7.97
2019-05-10T14:50:26.050Z,7.20
2019-05-10T14:52:53.041Z,6.53
2019-05-10T14:55:22.504Z,7.43
2019-05-10T14:57:51.904Z,6.13
2019-05-10T15:00:22.084Z,6.13
2019-05-10T15:02:51.497Z,7.57
2019-05-10T15:05:20.931Z,6.07
2019-05-10T15:07:51.180Z,6.30
2019-05-10T15:10:20.835Z,5.53
2019-05-10T15:12:50.239Z,7.00
2019-05-10T15:15:20.018Z,12.20
2019-05-10T15:17:55.154Z,7.33
2019-05-10T15:20:20.626Z,6.77
2019-05-10T15:22:50.025Z,5.77
2019-05-10T15:25:19.534Z,7.37
2019-05-10T15:27:48.934Z,4.20
2019-05-10T15:30:18.551Z,8.10
2019-05-10T15:32:47.950Z,6.83
2019-05-10T15:35:17.434Z,4.97
2019-05-10T15:37:48.351Z,6.57
2019-05-10T15:40:18.017Z,6.33
2019-05-10T15:42:47.587Z,5.73
2019-05-10T15:45:19.369Z,6.30
2019-05-10T15:47:51.591Z,5.90
2019-05-10T15:50:20.054Z,6.30
2019-05-10T15:52:49.498Z,7.87
2019-05-10T15:55:26.705Z,6.83
2019-05-10T15:57:51.991Z,7.73
2019-05-10T16:00:25.278Z,8.50
2019-05-10T16:02:53.778Z,9.80
2019-05-10T16:05:41.112Z,5.13
2019-05-10T16:07:54.624Z,6.13
2019-05-10T16:10:28.254Z,11.67
2019-05-10T16:12:55.275Z,8.73
2019-05-10T16:15:24.966Z,6.90
2019-05-10T16:17:59.675Z,7.30
2019-05-10T16:20:31.687Z,5.53
2019-05-10T16:23:02.871Z,8.50
2019-05-10T16:25:32.855Z,8.00
2019-05-10T16:28:01.002Z,8.10
2019-05-10T16:30:30.439Z,6.07
2019-05-10T16:32:59.936Z,9.67
2019-05-10T16:35:38.372Z,7.73
2019-05-10T16:38:00.696Z,8.47
2019-05-10T16:40:30.107Z,8.87
2019-05-10T16:42:59.629Z,6.17
2019-05-10T16:45:29.096Z,10.27
2019-05-10T16:47:58.685Z,6.07
2019-05-10T16:50:31.621Z,7.57
2019-05-10T16:53:05.511Z,8.53
2019-05-10T16:55:30.540Z,4.47
2019-05-10T16:58:03.138Z,8.80
2019-05-10T17:00:32.656Z,7.87
2019-05-10T17:03:02.170Z,7.07
2019-05-10T17:05:31.611Z,4.80
2019-05-10T17:08:01.078Z,6.87
2019-05-10T17:10:33.354Z,9.70
2019-05-10T17:13:05.036Z,11.40
2019-05-10T17:15:33.951Z,6.57
2019-05-10T17:18:03.954Z,5.40
2019-05-10T17:20:33.448Z,6.33
2019-05-10T17:23:08.817Z,5.93
2019-05-10T17:25:35.427Z,5.97
2019-05-10T17:28:05.208Z,5.63
2019-05-10T17:30:35.268Z,7.63
2019-05-10T17:33:06.123Z,8.90
2019-05-10T17:35:36.759Z,8.23
2019-05-10T17:38:08.025Z,8.40
2019-05-10T17:40:42.322Z,6.40
2019-05-10T17:43:14.206Z,7.70
2019-05-10T17:45:42.299Z,7.37
2019-05-10T17:48:11.787Z,7.60
2019-05-10T17:50:41.357Z,7.37
2019-05-10T17:53:10.834Z,8.83
2019-05-10T17:55:40.361Z,7.13
2019-05-10T17:58:09.879Z,4.20
2019-05-10T18:00:39.361Z,6.70
2019-05-10T18:03:10.518Z,8.93
2019-05-10T18:05:41.154Z,8.50
2019-05-10T18:08:11.300Z,6.00
2019-05-10T18:10:40.844Z,7.87
2019-05-10T18:13:10.326Z,7.23
2019-05-10T18:15:39.743Z,8.30
2019-05-10T18:18:09.139Z,8.63
2019-05-10T18:20:42.073Z,6.90
2019-05-10T18:23:09.803Z,10.03
2019-05-10T18:25:39.313Z,6.40
2019-05-10T18:28:08.840Z,8.47
2019-05-10T18:30:41.308Z,10.30
2019-05-10T18:33:12.510Z,8.57
2019-05-10T18:35:42.205Z,6.10
2019-05-10T18:38:11.706Z,7.73
2019-05-10T18:40:41.361Z,8.23
2019-05-10T18:43:12.424Z,6.60
2019-05-10T18:45:41.930Z,5.47
2019-05-10T18:48:11.371Z,9.37
2019-05-10T18:50:45.218Z,8.23
2019-05-10T18:53:11.917Z,6.20
2019-05-10T18:55:41.414Z,7.90
2019-05-10T18:58:10.851Z,7.33
2019-05-10T19:00:40.428Z,5.50
2019-05-10T19:03:10.011Z,10.00
2019-05-10T19:05:39.499Z,7.43
2019-05-10T19:08:08.939Z,4.50
2019-05-10T19:10:38.397Z,8.60
2019-05-10T19:13:09.737Z,8.67
2019-05-10T19:15:39.309Z,6.27
2019-05-10T19:18:08.984Z,6.07
2019-05-10T19:20:38.644Z,6.40
2019-05-10T19:23:13.303Z,8.40
2019-05-10T19:25:45.036Z,6.93
2019-05-10T19:28:11.397Z,6.93
2019-05-10T19:30:40.905Z,7.57
2019-05-10T19:33:10.410Z,7.60
2019-05-10T19:35:39.887Z,7.83
2019-05-10T19:38:09.315Z,8.63
2019-05-10T19:40:38.881Z,5.87
2019-05-10T19:43:08.599Z,5.33
2019-05-10T19:45:38.199Z,9.43
2019-05-10T19:48:07.656Z,5.97
2019-05-10T19:50:37.051Z,11.33
2019-05-10T19:53:06.475Z,9.80
2019-05-10T19:55:35.890Z,6.20
2019-05-10T19:58:05.601Z,9.37
2019-05-10T20:00:34.988Z,6.93
2019-05-10T20:03:05.937Z,16.27
2019-05-10T20:05:35.339Z,9.27
2019-05-10T20:08:04.939Z,10.00
2019-05-10T20:10:34.340Z,7.37
2019-05-10T20:13:03.839Z,7.00
2019-05-10T20:15:33.260Z,10.70
2019-05-10T20:18:02.810Z,8.57
2019-05-10T20:20:32.278Z,9.07
2019-05-10T20:23:01.701Z,7.47
2019-05-10T20:25:31.168Z,8.03
2019-05-10T20:28:02.094Z,9.97
2019-05-10T20:30:31.551Z,8.37
2019-05-10T20:33:00.947Z,10.03
2019-05-10T20:35:30.445Z,12.77
2019-05-10T20:38:02.353Z,6.67
2019-05-10T20:40:31.876Z,8.90
2019-05-10T20:43:01.291Z,8.00
2019-05-10T20:45:30.763Z,8.63
2019-05-10T20:48:00.207Z,7.13
2019-05-10T20:50:29.795Z,7.70
2019-05-10T20:52:59.203Z,7.30
2019-05-10T20:55:28.633Z,7.37
2019-05-10T20:57:58.237Z,8.23
2019-05-10T21:00:27.771Z,9.00
2019-05-10T21:02:57.253Z,10.60
2019-05-10T21:05:28.191Z,11.20
2019-05-10T21:07:57.828Z,12.03
2019-05-10T21:10:27.234Z,8.43
2019-05-10T21:12:56.653Z,14.10
2019-05-10T21:15:26.086Z,11.70
2019-05-10T21:17:55.494Z,8.60
2019-05-10T21:20:24.921Z,9.77
2019-05-10T21:22:54.486Z,9.40
2019-05-10T21:25:23.924Z,11.37
2019-05-10T21:27:54.845Z,10.40
2019-05-10T21:30:24.338Z,9.20
2019-05-10T21:32:53.943Z,9.90
2019-05-10T21:35:23.379Z,8.93
2019-05-10T21:37:52.827Z,9.40
2019-05-10T21:40:22.261Z,15.50
2019-05-10T21:42:51.733Z,6.37
2019-05-10T21:45:21.167Z,10.77
2019-05-10T21:47:52.003Z,10.60
2019-05-10T21:50:21.638Z,10.60
2019-05-10T21:52:51.067Z,8.90
2019-05-10T21:55:20.517Z,15.00
2019-05-10T21:57:50.120Z,10.60
2019-05-10T22:00:21.849Z,9.60
2019-05-10T22:02:51.391Z,11.57
2019-05-10T22:05:21.061Z,11.13
2019-05-10T22:07:50.592Z,9.50
2019-05-10T22:10:20.273Z,10.47
2019-05-10T22:12:49.773Z,9.73
2019-05-10T22:15:19.209Z,9.63
2019-05-10T22:17:48.938Z,16.23
2019-05-10T22:20:18.377Z,8.43
2019-05-10T22:22:47.814Z,13.40
2019-05-10T22:25:17.253Z,12.17
2019-05-10T22:27:47.048Z,8.57
2019-05-10T22:30:16.829Z,11.47
2019-05-10T22:32:46.358Z,12.30
2019-05-10T22:35:15.969Z,11.60
2019-05-10T22:37:45.459Z,11.90
2019-05-10T22:40:15.072Z,10.50
2019-05-10T22:42:44.472Z,12.17
2019-05-10T22:45:14.545Z,12.93
2019-05-10T22:47:43.943Z,11.03
2019-05-10T22:50:13.819Z,9.63
2019-05-10T22:52:43.219Z,10.47
2019-05-10T22:55:12.981Z,12.83
2019-05-10T22:57:42.405Z,14.93
2019-05-10T23:00:12.631Z,11.27
2019-05-10T23:02:43.671Z,15.23
2019-05-10T23:05:14.742Z,10.57
2019-05-10T23:07:44.219Z,11.60
2019-05-10T23:10:14.180Z,11.83
2019-05-10T23:12:43.587Z,13.27
2019-05-10T23:15:13.368Z,10.57
2019-05-10T23:17:42.765Z,8.97
2019-05-10T23:20:12.504Z,13.53
2019-05-10T23:22:42.152Z,11.27
2019-05-10T23:25:11.678Z,15.17
2019-05-10T23:27:41.116Z,8.17
2019-05-10T23:30:11.148Z,11.40
2019-05-10T23:32:40.765Z,11.00
2019-05-10T23:35:11.745Z,9.80
2019-05-10T23:37:42.019Z,9.60
2019-05-10T23:40:11.655Z,8.50
2019-05-10T23:42:41.184Z,8.97
2019-05-10T23:45:10.902Z,13.17
2019-05-10T23:47:40.843Z,9.23
2019-05-10T23:50:10.766Z,13.10
2019-05-10T23:52:40.220Z,11.47
2019-05-10T23:55:09.769Z,11.23
2019-05-10T23:57:39.219Z,13.20
